Time;durP1;ratioP1;P1;durP2;ratioP2;P2;SDS_P1;SDS_P2;PMS_P1;PMS_P2;Temp;Humidity;BMP_temperature;BMP_pressure;BME280_temperature;BME280_humidity;BME280_pressure;Samples;Min_cycle;Max_cycle;Signal;HPM_P1;HPM_P2
2022/04/29 00:02:11;;;;;;;;;;;;;;;13.54;53.08;95686.69;4977060;28;1183;-50
2022/04/29 00:04:37;;;;;;;;;;;;;;;13.51;53.11;95690.56;4977044;28;950;-50
2022/04/29 00:07:04;;;;;;;;;;;;;;;13.48;53.65;95689.03;4976669;28;1021;-50
2022/04/29 00:09:30;;;;;;;;;;;;;;;13.38;53.92;95687.50;4976813;28;1910;-50
2022/04/29 00:11:56;;;;;;;;;;;;;;;13.39;54.00;95692.72;4977090;28;996;-50
2022/04/29 00:14:25;;;;;;;;;;;;;;;13.44;53.58;95687.69;4976807;28;1032;-50
2022/04/29 00:16:51;;;;;;;;;;;;;;;13.42;53.54;95689.69;4976984;28;1033;-50
2022/04/29 00:19:17;;;;;;;;;;;;;;;13.36;53.62;95687.69;4976822;28;1046;-50
2022/04/29 00:21:44;;;;;;;;;;;;;;;13.41;53.48;95685.34;4976553;28;1026;-50
2022/04/29 00:24:11;;;;;;;;;;;;;;;13.35;53.89;95691.34;4976664;28;997;-50
2022/04/29 00:26:37;;;;;;;;;;;;;;;13.32;53.31;95683.66;4975167;28;1950;-50
2022/04/29 00:29:04;;;;;;;;;;;;;;;13.24;54.05;95687.13;4976684;28;950;-50
2022/04/29 00:31:30;;;;;;;;;;;;;;;13.27;53.41;95683.25;4976533;28;1072;-50
2022/04/29 00:33:57;;;;;;;;;;;;;;;13.23;53.80;95679.22;4976486;28;1046;-50
2022/04/29 00:36:23;;;;;;;;;;;;;;;13.26;53.90;95678.88;4976409;28;969;-50
2022/04/29 00:38:49;;;;;;;;;;;;;;;13.29;54.48;95683.94;4976515;28;961;-50
2022/04/29 00:41:19;;;;;;;;;;;;;;;13.33;53.71;95679.94;4976743;28;1000;-50
2022/04/29 00:43:45;;;;;;;;;;;;;;;13.28;53.75;95669.66;4976316;28;951;-49
2022/04/29 00:46:12;;;;;;;;;;;;;;;13.18;54.40;95677.00;4976626;28;1038;-49
2022/04/29 00:48:38;;;;;;;;;;;;;;;13.11;53.87;95669.78;4975231;28;1071;-49
2022/04/29 00:51:04;;;;;;;;;;;;;;;13.04;54.87;95669.63;4976223;28;1977;-49
2022/04/29 00:53:30;;;;;;;;;;;;;;;13.01;54.47;95673.47;4976092;28;1050;-49
2022/04/29 00:55:57;;;;;;;;;;;;;;;13.08;54.35;95679.00;4976303;28;1355;-49
2022/04/29 00:58:36;;;;;;;;;;;;;;;13.12;53.47;95679.53;4976036;28;1020;-49
2022/04/29 01:01:03;;;;;;;;;;;;;;;13.07;54.67;95685.38;4976008;28;963;-49
2022/04/29 01:03:29;;;;;;;;;;;;;;;13.13;53.59;95679.38;4975746;28;1040;-49
2022/04/29 01:05:55;;;;;;;;;;;;;;;13.22;53.96;95675.72;4975859;28;1030;-49
2022/04/29 01:08:22;;;;;;;;;;;;;;;13.13;54.22;95674.00;4975544;28;1013;-49
2022/04/29 01:10:48;;;;;;;;;;;;;;;13.09;54.44;95672.66;4975962;28;1902;-49
2022/04/29 01:13:16;;;;;;;;;;;;;;;13.04;54.67;95672.31;4975783;28;971;-49
2022/04/29 01:15:42;;;;;;;;;;;;;;;13.11;54.38;95683.22;4976028;28;974;-49
2022/04/29 01:18:09;;;;;;;;;;;;;;;13.12;54.14;95676.84;4975260;28;1083;-49
2022/04/29 01:20:36;;;;;;;;;;;;;;;13.19;54.03;95676.03;4975853;28;993;-49
2022/04/29 01:23:06;;;;;;;;;;;;;;;13.17;54.16;95687.94;4975378;28;1104;-49
2022/04/29 01:25:32;;;;;;;;;;;;;;;13.03;54.75;95681.34;4975376;28;1210;-49
2022/04/29 01:27:59;;;;;;;;;;;;;;;13.00;54.98;95677.16;4975249;28;1254;-49
2022/04/29 01:30:25;;;;;;;;;;;;;;;13.09;53.92;95681.53;4975376;28;1991;-49
2022/04/29 01:32:53;;;;;;;;;;;;;;;12.96;54.94;95680.34;4975222;28;1033;-49
2022/04/29 01:35:19;;;;;;;;;;;;;;;12.95;55.18;95681.31;4975576;28;976;-49
2022/04/29 01:37:45;;;;;;;;;;;;;;;12.85;55.18;95684.97;4975097;28;1017;-48
2022/04/29 01:40:12;;;;;;;;;;;;;;;12.87;55.21;95684.81;4975315;28;1080;-49
2022/04/29 01:42:38;;;;;;;;;;;;;;;12.87;55.76;95685.66;4974166;28;1041;-49
2022/04/29 01:45:05;;;;;;;;;;;;;;;12.91;55.18;95682.66;4975158;28;1092;-49
2022/04/29 01:47:31;;;;;;;;;;;;;;;12.91;55.50;95678.13;4974802;28;985;-49
2022/04/29 01:49:57;;;;;;;;;;;;;;;12.83;54.99;95673.56;4975000;28;1914;-49
2022/04/29 01:52:23;;;;;;;;;;;;;;;12.77;55.30;95676.06;4974928;28;1019;-49
2022/04/29 01:54:49;;;;;;;;;;;;;;;12.77;56.45;95670.72;4975168;28;961;-49
2022/04/29 01:57:15;;;;;;;;;;;;;;;12.73;56.03;95664.81;4975134;28;1053;-49
2022/04/29 01:59:41;;;;;;;;;;;;;;;12.83;55.24;95676.25;4974460;28;1013;-49
2022/04/29 02:02:07;;;;;;;;;;;;;;;12.83;55.93;95670.06;4974838;28;1064;-49
2022/04/29 02:04:37;;;;;;;;;;;;;;;12.77;56.05;95668.88;4974625;28;1021;-49
2022/04/29 02:07:04;;;;;;;;;;;;;;;12.72;56.48;95673.03;4974773;28;1053;-49
2022/04/29 02:09:30;;;;;;;;;;;;;;;12.75;55.46;95670.00;4974828;28;1910;-49
2022/04/29 02:12:05;;;;;;;;;;;;;;;12.79;55.51;95668.69;4975062;28;1024;-49
2022/04/29 02:14:32;;;;;;;;;;;;;;;12.75;56.47;95667.31;4974518;28;1962;-48
2022/04/29 02:16:58;;;;;;;;;;;;;;;12.65;55.77;95662.94;4974642;28;1019;-48
2022/04/29 02:19:25;;;;;;;;;;;;;;;12.60;55.71;95669.81;4974823;28;958;-48
2022/04/29 02:21:51;;;;;;;;;;;;;;;12.70;55.75;95668.66;4974932;28;970;-48
2022/04/29 02:24:18;;;;;;;;;;;;;;;12.72;55.45;95673.88;4989605;28;974;-48
2022/04/29 02:26:44;;;;;;;;;;;;;;;12.78;55.87;95675.06;4974383;28;1218;-49
2022/04/29 02:29:10;;;;;;;;;;;;;;;12.76;55.32;95679.75;4974396;28;1918;-48
2022/04/29 02:31:36;;;;;;;;;;;;;;;12.72;55.51;95673.03;4973248;28;1033;-48
2022/04/29 02:34:03;;;;;;;;;;;;;;;12.68;56.54;95683.25;4974657;28;1042;-49
2022/04/29 02:36:29;;;;;;;;;;;;;;;12.72;55.47;95684.59;4974772;28;1004;-48
2022/04/29 02:38:55;;;;;;;;;;;;;;;12.63;55.75;95681.03;4974489;28;1054;-47
2022/04/29 02:41:22;;;;;;;;;;;;;;;12.65;55.96;95679.06;4974408;28;965;-48
2022/04/29 02:43:49;;;;;;;;;;;;;;;12.75;55.77;95680.75;4974273;28;967;-48
2022/04/29 02:46:16;;;;;;;;;;;;;;;12.70;55.88;95683.91;4974615;28;1029;-48
2022/04/29 02:48:43;;;;;;;;;;;;;;;12.65;56.81;95679.06;4974022;28;997;-48
2022/04/29 02:51:09;;;;;;;;;;;;;;;12.61;56.13;95688.41;4974468;28;1906;-48
2022/04/29 02:53:36;;;;;;;;;;;;;;;12.63;56.51;95681.03;4974195;28;1979;-48
2022/04/29 02:56:02;;;;;;;;;;;;;;;12.64;55.88;95681.88;4974154;28;1033;-48
2022/04/29 02:58:29;;;;;;;;;;;;;;;12.67;56.65;95687.78;4974283;28;976;-48
2022/04/29 03:00:56;;;;;;;;;;;;;;;12.65;57.79;95689.78;4974068;28;1030;-49
2022/04/29 03:03:22;;;;;;;;;;;;;;;12.63;58.11;95691.75;4974491;28;1053;-49
2022/04/29 03:05:48;;;;;;;;;;;;;;;12.60;57.66;95686.72;4974260;28;1025;-48
2022/04/29 03:08:14;;;;;;;;;;;;;;;12.58;55.99;95685.22;4974218;28;1020;-48
2022/04/29 03:10:40;;;;;;;;;;;;;;;12.57;57.35;95687.03;4974599;28;1899;-48
2022/04/29 03:13:07;;;;;;;;;;;;;;;12.54;57.54;95681.16;4978020;28;1045;-48
2022/04/29 03:15:34;;;;;;;;;;;;;;;12.63;57.91;95685.56;4977988;28;993;-48
2022/04/29 03:18:20;;;;;;;;;;;;;;;12.60;56.86;95689.41;4977739;28;1009;-48
2022/04/29 03:20:48;;;;;;;;;;;;;;;12.63;59.17;95691.75;4977709;28;1029;-48
2022/04/29 03:23:14;;;;;;;;;;;;;;;12.58;59.02;95691.41;4977925;28;990;-48
2022/04/29 03:25:41;;;;;;;;;;;;;;;12.58;59.89;95688.72;4977362;28;1155;-48
2022/04/29 03:28:08;;;;;;;;;;;;;;;12.56;60.97;95689.88;4977703;28;1227;-48
2022/04/29 03:30:35;;;;;;;;;;;;;;;12.46;61.76;95695.34;4977670;28;1915;-48
2022/04/29 03:33:01;;;;;;;;;;;;;;;12.36;62.18;95694.66;4977638;28;1105;-48
2022/04/29 03:35:28;;;;;;;;;;;;;;;12.23;63.50;95695.06;4977252;28;1084;-48
2022/04/29 03:37:54;;;;;;;;;;;;;;;12.16;64.07;95684.16;4977904;28;962;-48
2022/04/29 03:40:21;;;;;;;;;;;;;;;12.18;65.20;95692.00;4977810;28;989;-48
2022/04/29 03:42:48;;;;;;;;;;;;;;;12.13;65.29;95691.66;4977609;28;964;-48
2022/04/29 03:45:14;;;;;;;;;;;;;;;11.98;65.66;95692.22;4977452;28;950;-48
2022/04/29 03:47:41;;;;;;;;;;;;;;;11.99;64.68;95693.91;4977311;28;1050;-47
2022/04/29 03:50:07;;;;;;;;;;;;;;;12.05;65.01;95689.78;4977157;28;1899;-48
2022/04/29 03:52:33;;;;;;;;;;;;;;;12.11;64.34;95689.97;4977373;28;1030;-48
2022/04/29 03:55:00;;;;;;;;;;;;;;;12.22;63.06;95686.19;4977105;28;968;-48
2022/04/29 03:57:26;;;;;;;;;;;;;;;12.30;62.88;95685.41;4977224;28;1060;-48
2022/04/29 03:59:52;;;;;;;;;;;;;;;12.38;62.22;95690.78;4977006;28;1087;-48
2022/04/29 04:02:18;;;;;;;;;;;;;;;12.35;62.41;95692.94;4977180;28;1046;-48
2022/04/29 04:04:45;;;;;;;;;;;;;;;12.32;62.78;95691.44;4977192;28;967;-48
2022/04/29 04:07:12;;;;;;;;;;;;;;;12.30;62.62;95693.44;4977084;28;1030;-48
2022/04/29 04:09:39;;;;;;;;;;;;;;;12.25;63.37;95707.31;4977096;28;1907;-49
2022/04/29 04:12:05;;;;;;;;;;;;;;;12.33;63.64;95701.19;4977123;28;1034;-47
2022/04/29 04:14:31;;;;;;;;;;;;;;;12.46;63.28;95695.34;4977008;28;1030;-48
2022/04/29 04:16:58;;;;;;;;;;;;;;;12.58;62.35;95704.81;4977022;28;1062;-47
2022/04/29 04:19:24;;;;;;;;;;;;;;;12.59;62.62;95709.19;4976584;28;937;-48
2022/04/29 04:21:50;;;;;;;;;;;;;;;12.51;63.28;95709.16;4976472;28;1004;-49
2022/04/29 04:24:16;;;;;;;;;;;;;;;12.55;62.81;95713.19;4975889;28;1116;-49
2022/04/29 04:26:42;;;;;;;;;;;;;;;12.45;63.70;95715.16;4976487;28;1155;-49
2022/04/29 04:29:08;;;;;;;;;;;;;;;12.46;63.56;95716.81;4976773;28;956;-48
2022/04/29 04:31:34;;;;;;;;;;;;;;;12.48;63.59;95717.50;4976547;28;2048;-48
2022/04/29 04:34:49;;;;;;;;;;;;;;;12.47;63.91;95719.34;4976620;28;1129;-48
2022/04/29 04:36:53;;;;;;;;;;;;;;;12.44;63.56;95727.69;4976262;28;1513;-49
2022/04/29 04:39:22;;;;;;;;;;;;;;;12.55;63.35;95721.22;4976598;28;1045;-49
2022/04/29 04:41:49;;;;;;;;;;;;;;;12.58;63.41;95722.78;4976478;28;1004;-48
2022/04/29 04:44:15;;;;;;;;;;;;;;;12.70;62.49;95729.53;4976516;28;975;-48
2022/04/29 04:46:41;;;;;;;;;;;;;;;12.76;62.64;95725.38;4976073;28;1020;-48
2022/04/29 04:49:07;;;;;;;;;;;;;;;12.78;62.65;95723.34;4976307;28;1008;-48
2022/04/29 04:51:33;;;;;;;;;;;;;;;12.85;62.12;95724.41;4975925;28;1981;-48
2022/04/29 04:53:59;;;;;;;;;;;;;;;12.96;61.19;95729.47;4976414;28;1193;-48
2022/04/29 04:56:26;;;;;;;;;;;;;;;13.06;60.80;95727.50;4976166;28;963;-49
2022/04/29 04:58:53;;;;;;;;;;;;;;;13.18;60.89;95730.72;4976250;28;979;-49
2022/04/29 05:01:19;;;;;;;;;;;;;;;13.35;60.87;95734.31;4975770;28;1880;-49
2022/04/29 05:03:45;;;;;;;;;;;;;;;13.53;61.11;95723.47;4976018;28;992;-48
2022/04/29 05:06:11;;;;;;;;;;;;;;;13.54;62.62;95729.66;4975702;28;1857;-48
2022/04/29 05:08:37;;;;;;;;;;;;;;;13.62;61.30;95724.31;4976130;28;1069;-48
2022/04/29 05:11:03;;;;;;;;;;;;;;;13.73;60.97;95720.47;4975847;28;2001;-48
2022/04/29 05:13:29;;;;;;;;;;;;;;;13.93;58.63;95715.63;4974720;28;995;-49
2022/04/29 05:15:57;;;;;;;;;;;;;;;13.91;59.40;95718.47;4976057;28;1001;-49
2022/04/29 05:18:23;;;;;;;;;;;;;;;13.78;59.37;95718.13;4975559;28;1032;-48
2022/04/29 05:20:49;;;;;;;;;;;;;;;13.65;60.19;95719.44;4975657;28;965;-48
2022/04/29 05:23:15;;;;;;;;;;;;;;;13.74;60.13;95717.63;4975470;28;1076;-48
2022/04/29 05:25:41;;;;;;;;;;;;;;;13.93;59.07;95710.22;4975540;28;2014;-48
2022/04/29 05:28:08;;;;;;;;;;;;;;;14.58;57.71;95717.41;4975237;28;1348;-48
2022/04/29 05:30:34;;;;;;;;;;;;;;;15.58;55.50;95717.63;4975381;28;1910;-48
2022/04/29 05:33:01;;;;;;;;;;;;;;;16.68;52.58;95718.25;4975262;28;1084;-50
2022/04/29 05:35:28;;;;;;;;;;;;;;;17.33;51.36;95706.69;4975079;28;1025;-49
2022/04/29 05:37:54;;;;;;;;;;;;;;;17.94;48.98;95708.19;4975126;28;900;-50
2022/04/29 05:43:05;;;;;;;;;;;;;;;17.17;49.63;95702.34;4975130;28;1042;-48
2022/04/29 05:45:31;;;;;;;;;;;;;;;16.54;49.93;95709.97;4975409;28;1042;-49
2022/04/29 05:47:57;;;;;;;;;;;;;;;16.87;50.87;95711.50;4974844;28;986;-49
2022/04/29 05:50:23;;;;;;;;;;;;;;;17.22;48.75;95715.25;4974827;28;2015;-49
2022/04/29 05:52:49;;;;;;;;;;;;;;;17.48;47.21;95717.47;4975146;28;1026;-49
2022/04/29 05:55:15;;;;;;;;;;;;;;;16.71;49.00;95713.34;4975347;28;926;-49
2022/04/29 05:57:41;;;;;;;;;;;;;;;16.45;51.30;95712.91;4975139;28;969;-49
2022/04/29 06:00:08;;;;;;;;;;;;;;;16.22;51.77;95715.66;4975073;28;1024;-49
2022/04/29 06:02:35;;;;;;;;;;;;;;;16.25;50.00;95718.00;4974629;28;1083;-48
2022/04/29 06:05:02;;;;;;;;;;;;;;;16.16;51.45;95717.22;4975082;28;985;-49
2022/04/29 06:07:28;;;;;;;;;;;;;;;15.90;52.35;95723.03;4974814;28;1058;-49
2022/04/29 06:09:54;;;;;;;;;;;;;;;16.34;52.02;95720.44;4974723;28;1906;-49
2022/04/29 06:12:20;;;;;;;;;;;;;;;16.93;51.14;95716.16;4974536;28;1025;-49
2022/04/29 06:14:46;;;;;;;;;;;;;;;16.78;49.07;95716.94;4974917;28;1028;-49
2022/04/29 06:17:13;;;;;;;;;;;;;;;16.97;49.09;95720.16;4974765;28;1004;-49
2022/04/29 06:19:39;;;;;;;;;;;;;;;17.20;47.75;95719.19;4974591;28;1043;-49
2022/04/29 06:22:05;;;;;;;;;;;;;;;17.93;47.07;95717.34;4974717;28;1011;-49
2022/04/29 06:24:32;;;;;;;;;;;;;;;18.51;47.62;95718.03;4974770;28;1038;-49
2022/04/29 06:26:58;;;;;;;;;;;;;;;17.99;45.17;95718.44;4974431;28;1336;-48
2022/04/29 06:29:24;;;;;;;;;;;;;;;17.88;45.95;95714.38;4974361;28;1914;-48
2022/04/29 06:31:50;;;;;;;;;;;;;;;17.26;47.85;95713.84;4974467;28;1115;-48
2022/04/29 06:34:16;;;;;;;;;;;;;;;17.70;45.61;95720.19;4974570;28;1156;-48
2022/04/29 06:36:43;;;;;;;;;;;;;;;18.58;43.95;95722.69;4974684;28;1039;-48
2022/04/29 06:39:09;;;;;;;;;;;;;;;18.89;43.39;95719.59;4974331;28;1012;-48
2022/04/29 06:41:36;;;;;;;;;;;;;;;19.45;44.33;95732.19;4974477;28;1049;-48
2022/04/29 06:44:02;;;;;;;;;;;;;;;20.07;41.01;95728.44;4974294;28;937;-48
2022/04/29 06:46:29;;;;;;;;;;;;;;;20.13;42.13;95723.19;4973756;28;1008;-48
2022/04/29 06:48:56;;;;;;;;;;;;;;;20.39;42.24;95709.63;4974184;28;1004;-48
2022/04/29 06:51:22;;;;;;;;;;;;;;;20.76;40.75;95712.78;4974543;28;1911;-48
2022/04/29 06:53:48;;;;;;;;;;;;;;;20.72;39.04;95717.00;4973103;28;1035;-48
2022/04/29 06:56:14;;;;;;;;;;;;;;;20.72;40.77;95706.13;4974272;28;1028;-48
2022/04/29 06:58:41;;;;;;;;;;;;;;;20.85;41.01;95700.66;4974326;28;981;-48
2022/04/29 07:01:07;;;;;;;;;;;;;;;21.12;41.04;95716.09;4974752;28;1049;-48
2022/04/29 07:03:33;;;;;;;;;;;;;;;21.43;39.92;95709.91;4974130;28;1018;-48
2022/04/29 07:06:01;;;;;;;;;;;;;;;21.67;39.71;95708.38;4973314;28;1045;-48
2022/04/29 07:08:28;;;;;;;;;;;;;;;21.53;38.86;95712.19;4974213;28;1095;-48
2022/04/29 07:10:55;;;;;;;;;;;;;;;21.95;37.76;95705.28;4974244;28;1907;-48
2022/04/29 07:13:21;;;;;;;;;;;;;;;22.37;37.58;95710.25;4973939;28;1172;-48
2022/04/29 07:15:48;;;;;;;;;;;;;;;22.74;36.00;95716.63;4974040;28;1069;-48
2022/04/29 07:18:17;;;;;;;;;;;;;;;22.68;36.35;95712.09;4973913;28;988;-50
2022/04/29 07:20:43;;;;;;;;;;;;;;;21.58;37.70;95709.66;4974120;28;1087;-48
2022/04/29 07:23:09;;;;;;;;;;;;;;;21.05;39.85;95706.03;4974077;28;1004;-48
2022/04/29 07:25:36;;;;;;;;;;;;;;;20.79;40.26;95703.38;4973903;28;1222;-48
2022/04/29 07:28:02;;;;;;;;;;;;;;;20.64;39.98;95711.75;4973890;28;1253;-48
2022/04/29 07:30:28;;;;;;;;;;;;;;;20.31;39.91;95714.47;4973752;28;1915;-48
2022/04/29 07:32:54;;;;;;;;;;;;;;;20.22;41.16;95711.09;4973873;28;1220;-48
2022/04/29 07:43:36;;;;;;;;;;;;;;;19.84;41.17;95708.97;4973748;28;1001;-48
2022/04/29 07:46:03;;;;;;;;;;;;;;;19.61;39.58;95707.41;4973859;28;1021;-47
2022/04/29 07:48:29;;;;;;;;;;;;;;;19.53;41.30;95713.03;4973660;28;963;-48
2022/04/29 07:50:55;;;;;;;;;;;;;;;19.54;43.11;95711.13;4974016;28;1993;-47
2022/04/29 07:53:22;;;;;;;;;;;;;;;19.67;41.57;95708.47;4973909;28;957;-48
2022/04/29 07:55:48;;;;;;;;;;;;;;;20.12;42.33;95710.69;4974048;28;972;-48
2022/04/29 07:58:14;;;;;;;;;;;;;;;21.00;39.72;95697.72;4975031;28;1862;-48
2022/04/29 08:00:40;;;;;;;;;;;;;;;21.34;40.80;95700.31;4977098;28;966;-47
2022/04/29 08:03:07;;;;;;;;;;;;;;;21.44;38.34;95698.00;4977056;28;1057;-47
2022/04/29 08:05:33;;;;;;;;;;;;;;;21.21;38.45;95684.88;4976817;28;1013;-48
2022/04/29 08:07:59;;;;;;;;;;;;;;;21.14;38.02;95681.34;4977291;28;1053;-48
2022/04/29 08:10:26;;;;;;;;;;;;;;;21.17;40.18;95678.19;4976699;28;1993;-48
2022/04/29 08:12:52;;;;;;;;;;;;;;;21.55;41.25;95677.44;4977250;28;934;-47
2022/04/29 08:15:19;;;;;;;;;;;;;;;21.76;39.26;95679.00;4976699;28;1037;-47
2022/04/29 08:17:45;;;;;;;;;;;;;;;21.89;38.80;95675.34;4976652;28;945;-47
2022/04/29 08:20:11;;;;;;;;;;;;;;;22.09;39.05;95681.50;4976706;28;1005;-47
2022/04/29 08:22:39;;;;;;;;;;;;;;;22.20;38.59;95675.34;4976654;28;966;-48
2022/04/29 08:25:06;;;;;;;;;;;;;;;22.24;37.91;95673.03;4976477;28;1207;-47
2022/04/29 08:27:32;;;;;;;;;;;;;;;22.15;37.33;95667.00;4976529;28;1241;-48
2022/04/29 08:29:58;;;;;;;;;;;;;;;22.35;37.97;95671.50;4976336;28;1997;-47
2022/04/29 08:32:25;;;;;;;;;;;;;;;22.07;37.50;95661.84;4976707;28;956;-48
2022/04/29 08:34:51;;;;;;;;;;;;;;;21.82;38.86;95673.53;4976416;28;1001;-47
2022/04/29 08:37:18;;;;;;;;;;;;;;;21.28;36.92;95666.63;4976569;28;1030;-47
2022/04/29 08:39:45;;;;;;;;;;;;;;;21.69;37.50;95657.28;4976568;28;1044;-48
2022/04/29 08:42:11;;;;;;;;;;;;;;;22.04;37.54;95648.66;4976614;28;1042;-48
2022/04/29 08:44:39;;;;;;;;;;;;;;;22.07;35.49;95650.13;4976127;28;1902;-47
2022/04/29 08:47:08;;;;;;;;;;;;;;;21.96;37.21;95647.03;4976344;28;985;-48
2022/04/29 08:49:35;;;;;;;;;;;;;;;21.25;36.36;95654.31;4976047;28;1918;-48
2022/04/29 08:52:01;;;;;;;;;;;;;;;21.48;37.65;95646.72;4976229;28;1041;-48
2022/04/29 08:59:58;;;;;;;;;;;;;;;21.91;37.00;95651.47;4976238;28;1046;-48
2022/04/29 09:02:26;;;;;;;;;;;;;;;22.19;35.06;95641.00;4975826;28;1040;-47
2022/04/29 09:04:53;;;;;;;;;;;;;;;22.49;34.67;95642.25;4976063;28;1037;-47
2022/04/29 09:07:19;;;;;;;;;;;;;;;21.73;34.99;95635.91;4975806;28;1001;-48
2022/04/29 09:10:02;;;;;;;;;;;;;;;21.30;36.72;95641.94;4975344;28;1997;-48
2022/04/29 09:12:29;;;;;;;;;;;;;;;21.23;36.72;95629.22;4976114;28;1020;-47
2022/04/29 09:15:10;;;;;;;;;;;;;;;21.33;36.03;95644.25;4975630;28;981;-48
2022/04/29 09:17:38;;;;;;;;;;;;;;;21.70;38.08;95634.44;4975675;28;1066;-47
2022/04/29 09:20:12;;;;;;;;;;;;;;;22.11;36.79;95626.84;4975644;28;1029;-47
2022/04/29 09:22:39;;;;;;;;;;;;;;;22.32;36.52;95620.19;4975623;28;1049;-47
2022/04/29 09:25:05;;;;;;;;;;;;;;;21.96;37.59;95624.44;4975436;28;1151;-47
2022/04/29 09:27:51;;;;;;;;;;;;;;;22.55;36.16;95619.56;4975249;28;1104;-48
2022/04/29 09:30:18;;;;;;;;;;;;;;;22.55;35.74;95617.66;4975377;28;1906;-48
2022/04/29 09:32:50;;;;;;;;;;;;;;;21.87;36.25;95607.53;4975367;28;1021;-47
2022/04/29 09:35:33;;;;;;;;;;;;;;;21.54;36.34;95611.31;4975308;28;1000;-48
2022/04/29 09:40:46;;;;;;;;;;;;;;;21.71;37.26;95602.63;4975437;28;963;-48
2022/04/29 09:43:12;;;;;;;;;;;;;;;22.13;37.21;95598.31;4975378;28;1030;-49
2022/04/29 09:45:38;;;;;;;;;;;;;;;22.35;35.02;95606.13;4974979;28;1143;-49
2022/04/29 09:48:08;;;;;;;;;;;;;;;22.35;36.01;95598.78;4975079;28;1091;-49
2022/04/29 09:50:46;;;;;;;;;;;;;;;22.69;36.83;95599.28;4974777;28;1906;-49
2022/04/29 09:53:20;;;;;;;;;;;;;;;22.99;35.94;95604.81;4975107;28;1091;-49
2022/04/29 09:56:04;;;;;;;;;;;;;;;22.98;35.56;95594.13;4975023;28;1024;-49
2022/04/29 09:58:30;;;;;;;;;;;;;;;23.21;35.87;95595.34;4974918;28;1033;-49
2022/04/29 10:00:57;;;;;;;;;;;;;;;23.24;35.87;95583.97;4975000;28;1153;-49
2022/04/29 10:03:23;;;;;;;;;;;;;;;23.19;35.94;95588.22;4974933;28;1107;-49
2022/04/29 10:05:50;;;;;;;;;;;;;;;22.83;35.00;95580.88;4974739;28;939;-49
2022/04/29 10:08:18;;;;;;;;;;;;;;;22.56;35.84;95577.63;4975105;28;1038;-49
2022/04/29 10:10:45;;;;;;;;;;;;;;;22.17;36.19;95574.19;4975195;28;1914;-49
2022/04/29 10:13:13;;;;;;;;;;;;;;;21.67;36.80;95566.03;4973847;28;1047;-49
2022/04/29 10:15:39;;;;;;;;;;;;;;;21.28;37.13;95568.75;4974800;28;1029;-49
2022/04/29 10:23:38;;;;;;;;;;;;;;;21.40;37.38;95558.84;4974649;28;1064;-49
2022/04/29 10:26:04;;;;;;;;;;;;;;;21.60;37.33;95553.28;4974409;28;1168;-50
2022/04/29 10:28:31;;;;;;;;;;;;;;;22.15;37.51;95552.63;4974966;28;1047;-49
2022/04/29 10:30:59;;;;;;;;;;;;;;;22.65;38.04;95554.47;4974581;28;1953;-48
2022/04/29 10:33:26;;;;;;;;;;;;;;;22.88;36.23;95551.06;4974335;28;1073;-49
2022/04/29 10:35:58;;;;;;;;;;;;;;;22.72;36.38;95554.38;4974646;28;1042;-49
2022/04/29 10:38:31;;;;;;;;;;;;;;;22.44;35.71;95550.28;4974463;28;1000;-48
2022/04/29 10:41:17;;;;;;;;;;;;;;;22.05;35.17;95546.03;4974764;28;981;-49
2022/04/29 10:43:56;;;;;;;;;;;;;;;22.18;36.68;95540.47;4974223;28;1263;-49
2022/04/29 10:46:31;;;;;;;;;;;;;;;22.49;36.07;95546.91;4974427;28;1050;-49
2022/04/29 10:48:57;;;;;;;;;;;;;;;22.23;35.07;95527.84;4974341;28;1282;-49
2022/04/29 10:51:26;;;;;;;;;;;;;;;22.54;37.43;95536.97;4974463;28;1942;-49
2022/04/29 10:53:55;;;;;;;;;;;;;;;22.57;37.08;95533.78;4974256;28;1069;-49
2022/04/29 10:56:30;;;;;;;;;;;;;;;22.44;36.05;95528.47;4974455;28;1042;-49
2022/04/29 10:59:21;;;;;;;;;;;;;;;22.70;36.45;95515.63;4974487;28;950;-49
2022/04/29 11:01:48;;;;;;;;;;;;;;;22.79;35.60;95526.00;4974088;28;998;-48
2022/04/29 11:04:14;;;;;;;;;;;;;;;22.60;35.98;95529.78;4974236;28;1041;-48
2022/04/29 11:06:44;;;;;;;;;;;;;;;22.62;35.24;95519.50;4974187;28;1067;-48
2022/04/29 11:09:30;;;;;;;;;;;;;;;22.30;35.99;95516.06;4974354;28;1049;-48
2022/04/29 11:11:57;;;;;;;;;;;;;;;21.92;37.11;95512.44;4973920;28;1025;-49
2022/04/29 11:14:23;;;;;;;;;;;;;;;21.87;36.59;95514.97;4974357;28;961;-49
2022/04/29 11:16:53;;;;;;;;;;;;;;;21.85;36.57;95503.47;4974189;28;1059;-49
2022/04/29 11:19:21;;;;;;;;;;;;;;;21.74;36.76;95501.47;4973963;28;1240;-49
2022/04/29 11:24:45;;;;;;;;;;;;;;;21.76;36.43;95502.94;4973983;28;767;-49
2022/04/29 11:27:11;;;;;;;;;;;;;;;21.89;36.20;95495.69;4973862;28;1167;-49
2022/04/29 11:29:41;;;;;;;;;;;;;;;22.19;37.81;95496.66;4973961;28;1955;-48
2022/04/29 11:32:07;;;;;;;;;;;;;;;22.58;37.48;95499.22;4974903;28;1017;-48
2022/04/29 11:34:34;;;;;;;;;;;;;;;22.66;38.20;95490.72;4977650;28;1017;-49
2022/04/29 11:37:00;;;;;;;;;;;;;;;22.49;37.08;95493.22;4977579;28;1875;-49
2022/04/29 11:39:26;;;;;;;;;;;;;;;22.28;36.79;95499.13;4977751;28;997;-48
2022/04/29 11:41:56;;;;;;;;;;;;;;;22.15;38.18;95483.72;4977835;28;954;-49
2022/04/29 11:44:32;;;;;;;;;;;;;;;22.02;37.59;95487.41;4977160;28;1851;-48
2022/04/29 11:46:58;;;;;;;;;;;;;;;22.00;38.44;95474.00;4977729;28;1034;-48
2022/04/29 11:49:32;;;;;;;;;;;;;;;21.93;38.02;95481.44;4976983;28;1037;-48
2022/04/29 11:52:16;;;;;;;;;;;;;;;21.71;38.08;95472.00;4977364;28;931;-48
2022/04/29 11:54:52;;;;;;;;;;;;;;;21.67;38.75;95474.34;4977354;28;977;-49
2022/04/29 11:57:18;;;;;;;;;;;;;;;21.43;37.61;95473.25;4977240;28;1000;-48
2022/04/29 11:59:45;;;;;;;;;;;;;;;21.22;38.54;95474.44;4977062;28;2124;-48
2022/04/29 12:02:11;;;;;;;;;;;;;;;21.16;38.29;95476.16;4977132;28;1036;-48
2022/04/29 12:04:51;;;;;;;;;;;;;;;21.10;38.10;95471.59;4976967;28;993;-48
2022/04/29 12:07:17;;;;;;;;;;;;;;;21.12;38.39;95469.50;4977375;28;1136;-48
2022/04/29 12:09:43;;;;;;;;;;;;;;;21.33;39.01;95462.03;4977148;28;1978;-48
2022/04/29 12:12:29;;;;;;;;;;;;;;;21.32;39.29;95463.06;4977307;28;1022;-48
2022/04/29 12:14:56;;;;;;;;;;;;;;;21.18;39.24;95462.34;4977026;28;953;-48
2022/04/29 12:17:36;;;;;;;;;;;;;;;21.18;39.50;95465.91;4976618;28;1088;-48
2022/04/29 12:20:03;;;;;;;;;;;;;;;21.18;38.36;95462.34;4977014;28;1042;-48
2022/04/29 12:22:36;;;;;;;;;;;;;;;20.98;39.33;95460.59;4976929;28;985;-48
2022/04/29 12:25:21;;;;;;;;;;;;;;;20.92;38.71;95456.03;4976815;28;1158;-48
2022/04/29 12:28:06;;;;;;;;;;;;;;;20.99;39.56;95451.38;4976682;28;1230;-48
2022/04/29 12:36:07;;;;;;;;;;;;;;;20.94;39.12;95442.22;4976765;28;942;-48
2022/04/29 12:38:34;;;;;;;;;;;;;;;21.14;39.42;95439.38;4976227;28;1104;-48
2022/04/29 12:41:15;;;;;;;;;;;;;;;21.10;39.29;95441.69;4976647;28;1039;-48
2022/04/29 12:43:42;;;;;;;;;;;;;;;20.96;39.54;95442.84;4975333;28;981;-48
2022/04/29 12:46:17;;;;;;;;;;;;;;;20.92;39.15;95433.47;4976331;28;1033;-48
2022/04/29 12:48:47;;;;;;;;;;;;;;;20.96;39.33;95440.13;4976200;28;1178;-47
2022/04/29 12:51:23;;;;;;;;;;;;;;;20.86;39.04;95436.00;4976345;28;1997;-48
2022/04/29 12:53:49;;;;;;;;;;;;;;;20.72;39.37;95434.41;4976183;28;1045;-47
2022/04/29 12:56:27;;;;;;;;;;;;;;;20.69;38.80;95428.59;4976488;28;977;-48
2022/04/29 12:58:54;;;;;;;;;;;;;;;20.59;39.22;95423.59;4976018;28;1036;-47
2022/04/29 13:01:20;;;;;;;;;;;;;;;20.58;39.61;95427.34;4976268;28;959;-48
2022/04/29 13:07:07;;;;;;;;;;;;;;;21.02;38.73;95420.22;4976076;28;660;-48
2022/04/29 13:09:33;;;;;;;;;;;;;;;21.17;39.12;95425.31;4976126;28;1077;-48
2022/04/29 13:11:59;;;;;;;;;;;;;;;20.96;38.08;95423.81;4975847;28;1906;-48
2022/04/29 13:14:25;;;;;;;;;;;;;;;20.85;37.57;95418.03;4975502;28;1009;-48
2022/04/29 13:16:52;;;;;;;;;;;;;;;20.89;39.16;95410.28;4975887;28;1107;-48
2022/04/29 13:19:18;;;;;;;;;;;;;;;20.85;38.39;95412.59;4975391;28;955;-48
2022/04/29 13:21:44;;;;;;;;;;;;;;;20.83;38.76;95409.28;4975656;28;1033;-48
2022/04/29 13:24:10;;;;;;;;;;;;;;;20.71;39.18;95402.84;4975477;28;1006;-49
2022/04/29 13:26:36;;;;;;;;;;;;;;;20.78;39.22;95402.81;4975505;28;1166;-49
2022/04/29 13:29:03;;;;;;;;;;;;;;;20.81;39.09;95403.22;4975382;28;1060;-49
2022/04/29 13:31:29;;;;;;;;;;;;;;;20.89;39.24;95406.69;4975697;28;1931;-49
2022/04/29 13:33:55;;;;;;;;;;;;;;;20.77;39.04;95402.00;4975371;28;1100;-49
2022/04/29 13:36:22;;;;;;;;;;;;;;;20.77;40.30;95399.28;4975576;28;1061;-49
2022/04/29 13:38:48;;;;;;;;;;;;;;;20.80;39.59;95403.44;4975373;28;1189;-48
2022/04/29 13:41:14;;;;;;;;;;;;;;;20.96;39.59;95402.06;4975437;28;1055;-48